Time;durP1;ratioP1;P1;durP2;ratioP2;P2;SDS_P1;SDS_P2;PMS_P1;PMS_P2;Temp;Humidity;BMP_temperature;BMP_pressure;BME280_temperature;BME280_humidity;BME280_pressure;Samples;Min_cycle;Max_cycle;Signal;HPM_P1;HPM_P2
2023/01/06 00:01:32;;;;;;;4.60;2.00;;;14.40;74.60;;;;;;5026388;28;20037;-48
2023/01/06 00:04:02;;;;;;;4.50;1.63;;;14.40;74.50;;;;;;5016327;28;20465;-48
2023/01/06 00:06:29;;;;;;;2.92;2.10;;;14.40;74.50;;;;;;5021058;28;20067;-49
2023/01/06 00:08:59;;;;;;;2.17;1.55;;;14.40;74.50;;;;;;5028333;28;20037;-49
2023/01/06 00:11:26;;;;;;;2.63;1.60;;;14.40;74.50;;;;;;5024892;28;20124;-52
2023/01/06 00:13:54;;;;;;;3.20;1.55;;;14.40;74.40;;;;;;5006487;28;20043;-49
2023/01/06 00:16:22;;;;;;;3.10;1.95;;;14.40;74.40;;;;;;5025308;28;20033;-48
2023/01/06 00:18:56;;;;;;;2.67;1.40;;;14.40;74.20;;;;;;5003705;28;20034;-47
2023/01/06 00:21:24;;;;;;;1.73;1.45;;;14.40;74.30;;;;;;5007827;28;20050;-53
2023/01/06 00:23:58;;;;;;;4.80;2.22;;;14.40;74.20;;;;;;5012173;28;20489;-50
2023/01/06 00:26:25;;;;;;;2.60;1.85;;;14.40;74.10;;;;;;5017974;28;20504;-48
2023/01/06 00:28:56;;;;;;;1.42;1.33;;;14.40;74.00;;;;;;5017417;28;20045;-50
2023/01/06 00:31:25;;;;;;;1.70;1.30;;;14.40;73.90;;;;;;4994848;28;20050;-51
2023/01/06 00:33:58;;;;;;;2.58;1.40;;;14.40;74.30;;;;;;4989650;28;20041;-49
2023/01/06 00:36:25;;;;;;;1.30;1.10;;;14.40;73.40;;;;;;4993153;28;20132;-50
2023/01/06 00:38:54;;;;;;;2.58;1.00;;;14.30;73.30;;;;;;5004620;28;20128;-48
2023/01/06 00:44:13;;;;;;;1.35;1.05;;;14.30;73.00;;;;;;4989827;28;20410;-51
2023/01/06 00:46:45;;;;;;;1.95;1.15;;;14.30;72.90;;;;;;5022137;28;20083;-49
2023/01/06 00:49:17;;;;;;;2.50;1.00;;;14.30;72.80;;;;;;5010101;28;20045;-48
2023/01/06 00:51:51;;;;;;;2.28;1.35;;;14.30;72.70;;;;;;5017097;28;20405;-52
2023/01/06 00:54:18;;;;;;;3.17;1.25;;;14.20;72.70;;;;;;5032353;28;20041;-53
2023/01/06 00:56:48;;;;;;;2.88;1.33;;;14.30;72.60;;;;;;5032381;28;20552;-53
2023/01/06 00:59:25;;;;;;;3.22;1.25;;;14.30;72.50;;;;;;5014718;28;20034;-51
2023/01/06 01:01:56;;;;;;;1.33;0.90;;;14.30;72.40;;;;;;5018850;28;20060;-53
2023/01/06 01:04:24;;;;;;;2.15;1.02;;;14.20;72.40;;;;;;5031977;28;20037;-53
2023/01/06 01:06:53;;;;;;;1.80;1.10;;;14.20;72.30;;;;;;4999497;28;20050;-53
2023/01/06 01:09:22;;;;;;;1.77;1.25;;;14.20;72.40;;;;;;4992639;28;20046;-53
2023/01/06 01:12:11;;;;;;;2.35;0.80;;;14.20;72.20;;;;;;5027450;28;20033;-52
2023/01/06 01:14:58;;;;;;;5.90;1.27;;;14.20;72.10;;;;;;5006479;28;20080;-53
2023/01/06 01:17:32;;;;;;;2.80;1.10;;;14.20;72.00;;;;;;5011857;28;20041;-51
2023/01/06 01:19:59;;;;;;;2.63;1.10;;;14.20;71.90;;;;;;4999247;28;20076;-51
2023/01/06 01:22:29;;;;;;;2.90;1.10;;;14.20;71.80;;;;;;5029878;28;20635;-49
2023/01/06 01:24:56;;;;;;;4.35;1.80;;;14.20;71.80;;;;;;4998666;28;20494;-52
2023/01/06 01:27:27;;;;;;;4.28;1.10;;;14.20;71.90;;;;;;5002277;28;20042;-52
2023/01/06 01:29:54;;;;;;;0.90;0.90;;;14.20;71.80;;;;;;5015684;28;20033;-50
2023/01/06 01:32:28;;;;;;;2.28;1.10;;;14.20;71.70;;;;;;5013086;28;20046;-49
2023/01/06 01:34:58;;;;;;;2.83;1.00;;;14.20;71.70;;;;;;4982498;28;20049;-49
2023/01/06 01:37:32;;;;;;;4.90;1.70;;;14.20;71.40;;;;;;5021855;28;20136;-53
2023/01/06 01:40:01;;;;;;;4.78;1.67;;;14.20;71.40;;;;;;5016182;28;20041;-49
2023/01/06 01:42:27;;;;;;;2.53;1.02;;;14.20;71.40;;;;;;5013987;28;20056;-49
2023/01/06 01:45:25;;;;;;;3.47;1.30;;;14.20;71.40;;;;;;4997777;28;20049;-53
2023/01/06 01:47:59;;;;;;;1.25;1.15;;;14.20;71.40;;;;;;5020348;28;20116;-51
2023/01/06 01:50:32;;;;;;;2.30;1.20;;;14.20;71.20;;;;;;5012844;28;20744;-49
2023/01/06 01:53:15;;;;;;;2.20;1.52;;;14.20;71.20;;;;;;5031540;28;20045;-51
2023/01/06 01:55:51;;;;;;;3.47;1.50;;;14.20;71.10;;;;;;5014836;28;20457;-49
2023/01/06 01:58:35;;;;;;;2.00;1.17;;;14.20;71.20;;;;;;5019877;28;20060;-50
2023/01/06 02:01:05;;;;;;;2.38;1.30;;;14.20;71.00;;;;;;5013007;28;20037;-49
2023/01/06 02:03:41;;;;;;;3.13;1.60;;;14.20;71.10;;;;;;5013178;28;20521;-48
2023/01/06 02:06:15;;;;;;;1.50;1.15;;;14.20;71.00;;;;;;5014254;28;20095;-52
2023/01/06 02:09:05;;;;;;;2.25;1.10;;;14.10;70.80;;;;;;5008372;28;20050;-48
2023/01/06 02:11:37;;;;;;;3.00;1.23;;;14.20;70.50;;;;;;5030428;28;20057;-49
2023/01/06 02:14:18;;;;;;;1.13;0.95;;;14.10;70.70;;;;;;5013811;28;20045;-48
2023/01/06 02:17:14;;;;;;;4.03;1.10;;;14.20;70.40;;;;;;5005194;28;20045;-49
2023/01/06 02:20:02;;;;;;;2.90;1.00;;;14.20;70.30;;;;;;5011912;28;20038;-51
2023/01/06 02:22:58;;;;;;;1.10;1.00;;;14.10;70.50;;;;;;5031013;28;20086;-50
2023/01/06 02:25:44;;;;;;;;;;;14.10;70.00;;;;;;5014663;28;20033;-48
2023/01/06 02:28:49;;;;;;;4.15;1.77;;;14.20;70.40;;;;;;5021602;28;20404;-49
2023/01/06 02:31:51;;;;;;;2.22;1.15;;;14.20;70.00;;;;;;5040613;28;20050;-50
2023/01/06 02:34:46;;;;;;;1.60;1.10;;;14.20;69.90;;;;;;5006468;28;20045;-51
2023/01/06 02:37:40;;;;;;;2.55;1.02;;;14.20;69.70;;;;;;5014978;28;20044;-51
2023/01/06 02:40:47;;;;;;;3.65;1.15;;;14.20;69.80;;;;;;5031836;28;20451;-53
2023/01/06 02:43:31;;;;;;;4.40;1.27;;;14.10;69.80;;;;;;5015418;28;20520;-52
2023/01/06 02:46:28;;;;;;;1.98;1.27;;;14.10;69.80;;;;;;5024650;28;20061;-53
2023/01/06 02:49:04;;;;;;;3.03;0.93;;;14.10;69.60;;;;;;5007902;28;20095;-52
2023/01/06 02:52:17;;;;;;;2.72;1.08;;;14.10;69.60;;;;;;5016737;28;20038;-53
2023/01/06 02:55:00;;;;;;;2.88;1.17;;;14.10;69.10;;;;;;4991209;28;20066;-52
2023/01/06 02:57:44;;;;;;;3.55;1.48;;;14.10;68.80;;;;;;4991871;28;20092;-52
2023/01/06 03:00:35;;;;;;;2.13;1.00;;;14.10;68.50;;;;;;5014301;28;20554;-51
2023/01/06 03:03:22;;;;;;;4.88;1.00;;;14.10;68.70;;;;;;5034315;28;20118;-52
2023/01/06 03:05:57;;;;;;;2.60;0.77;;;14.10;68.80;;;;;;5023607;28;20501;-52
2023/01/06 03:08:31;;;;;;;3.47;0.88;;;14.10;68.80;;;;;;5047396;28;20064;-49
2023/01/06 03:10:59;;;;;;;1.52;0.60;;;14.10;68.80;;;;;;5016810;28;20449;-52
2023/01/06 03:14:16;;;;;;;3.63;0.75;;;14.10;68.80;;;;;;5032127;28;20037;-50
2023/01/06 03:16:45;;;;;;;6.75;1.13;;;14.10;68.40;;;;;;5037569;28;20057;-53
2023/01/06 03:19:12;;;;;;;2.28;1.23;;;14.20;68.90;;;;;;5016486;28;20505;-51
2023/01/06 03:21:44;;;;;;;2.95;0.98;;;14.10;68.80;;;;;;5011507;28;20058;-52
2023/01/06 03:24:15;;;;;;;2.60;1.00;;;14.10;68.70;;;;;;5032406;28;21359;-48
2023/01/06 03:26:45;;;;;;;1.60;0.90;;;14.10;68.80;;;;;;5032224;28;20072;-49
2023/01/06 03:29:16;;;;;;;3.60;1.00;;;14.10;68.90;;;;;;5017065;28;20136;-52
2023/01/06 03:31:59;;;;;;;2.75;0.90;;;14.10;68.80;;;;;;5029870;28;20069;-50
2023/01/06 03:34:38;;;;;;;3.15;0.98;;;14.10;68.70;;;;;;5018423;28;20046;-51
2023/01/06 03:37:17;;;;;;;1.98;1.05;;;14.10;68.90;;;;;;5017422;28;20057;-48
2023/01/06 03:40:10;;;;;;;2.13;0.90;;;14.10;68.70;;;;;;5027519;28;20041;-49
2023/01/06 03:43:24;;;;;;;3.20;1.08;;;14.10;69.00;;;;;;5028654;28;20120;-49
2023/01/06 03:46:16;;;;;;;2.63;1.00;;;14.10;68.80;;;;;;5004144;28;20544;-49
2023/01/06 03:49:10;;;;;;;3.65;0.90;;;14.10;68.80;;;;;;5010265;28;20600;-49
2023/01/06 03:52:06;;;;;;;0.82;0.73;;;14.10;69.50;;;;;;5026034;28;20049;-48
2023/01/06 03:54:39;;;;;;;2.55;1.17;;;14.20;69.00;;;;;;5015698;28;20465;-49
2023/01/06 03:57:24;;;;;;;1.52;0.70;;;14.10;69.10;;;;;;4997488;28;20421;-48
2023/01/06 03:59:58;;;;;;;3.45;1.95;;;14.10;68.90;;;;;;5028961;28;20037;-49
2023/01/06 04:02:40;;;;;;;1.33;0.90;;;14.10;69.80;;;;;;5046450;28;20053;-48
2023/01/06 04:05:24;;;;;;;2.25;1.02;;;14.10;69.10;;;;;;5022297;28;20063;-50
2023/01/06 04:07:57;;;;;;;4.57;1.23;;;14.10;69.10;;;;;;5030231;28;20068;-49
2023/01/06 04:10:26;;;;;;;3.50;0.80;;;14.10;69.10;;;;;;5031035;28;20047;-49
2023/01/06 04:12:56;;;;;;;3.03;1.23;;;14.10;69.20;;;;;;5029528;28;20686;-49
2023/01/06 04:15:31;;;;;;;1.50;0.90;;;14.10;69.10;;;;;;4995977;28;20048;-50
2023/01/06 04:17:59;;;;;;;2.53;0.97;;;14.10;69.10;;;;;;5015684;28;20041;-50
2023/01/06 04:20:33;;;;;;;3.10;1.35;;;14.10;69.10;;;;;;5008520;28;20890;-49
2023/01/06 04:23:18;;;;;;;1.75;0.85;;;14.10;68.90;;;;;;5028688;28;20133;-50
2023/01/06 04:25:47;;;;;;;1.63;0.70;;;14.10;68.90;;;;;;5039260;28;20144;-48
2023/01/06 04:28:23;;;;;;;2.67;0.70;;;14.10;68.90;;;;;;5021601;28;20053;-48
2023/01/06 04:30:51;;;;;;;1.55;0.77;;;14.10;69.00;;;;;;5027708;28;20571;-49
2023/01/06 04:33:20;;;;;;;2.58;0.60;;;14.10;69.00;;;;;;5049805;28;20079;-48
2023/01/06 04:35:51;;;;;;;0.77;0.52;;;14.10;68.90;;;;;;5006008;28;20141;-49
2023/01/06 04:38:21;;;;;;;3.25;1.13;;;14.10;68.80;;;;;;5021989;28;20049;-48
2023/01/06 04:40:50;;;;;;;2.65;0.75;;;14.10;68.80;;;;;;5048338;28;20041;-50
2023/01/06 04:43:23;;;;;;;2.38;0.60;;;14.10;68.80;;;;;;5045970;28;20067;-49
2023/01/06 04:45:50;;;;;;;2.05;0.68;;;14.10;68.80;;;;;;5013626;28;20621;-48
2023/01/06 04:48:24;;;;;;;2.53;0.82;;;14.10;68.80;;;;;;5031912;28;20084;-50
2023/01/06 04:51:05;;;;;;;1.92;0.60;;;14.10;68.90;;;;;;5048546;28;20048;-49
2023/01/06 04:53:36;;;;;;;1.98;0.80;;;14.10;68.60;;;;;;5014097;28;20037;-48
2023/01/06 04:56:09;;;;;;;2.53;0.50;;;14.10;68.70;;;;;;5033008;28;20520;-49
2023/01/06 04:58:38;;;;;;;2.33;0.90;;;14.20;68.60;;;;;;5049894;28;20147;-51
2023/01/06 05:01:09;;;;;;;1.55;0.70;;;14.10;68.70;;;;;;5025685;28;20033;-48
2023/01/06 05:03:38;;;;;;;;;;;14.10;68.70;;;;;;5031784;28;20040;-49
2023/01/06 05:06:08;;;;;;;1.67;0.80;;;14.20;68.90;;;;;;5032111;28;19925;-52
2023/01/06 05:08:37;;;;;;;1.55;0.73;;;14.10;68.70;;;;;;5049146;28;20552;-49
2023/01/06 05:11:12;;;;;;;1.20;0.63;;;14.10;68.70;;;;;;5032908;28;20095;-50
2023/01/06 05:13:42;;;;;;;3.75;1.00;;;14.10;68.70;;;;;;5028820;28;20060;-50
2023/01/06 05:16:16;;;;;;;1.10;0.70;;;14.10;68.70;;;;;;5030756;28;20140;-49
2023/01/06 05:18:44;;;;;;;5.57;1.52;;;14.10;68.80;;;;;;5048895;28;20087;-49
2023/01/06 05:21:11;;;;;;;1.67;1.10;;;14.10;68.90;;;;;;5026966;28;20363;-48
2023/01/06 05:23:39;;;;;;;2.35;1.02;;;14.10;69.00;;;;;;5036409;28;20050;-48
2023/01/06 05:26:06;;;;;;;1.10;1.00;;;14.10;68.90;;;;;;5036761;28;20040;-48
2023/01/06 05:28:33;;;;;;;2.13;1.00;;;14.10;69.00;;;;;;5027677;28;20046;-49
2023/01/06 05:31:02;;;;;;;2.15;0.70;;;14.10;68.90;;;;;;5025581;28;20078;-49
2023/01/06 05:33:30;;;;;;;1.67;0.65;;;14.10;68.90;;;;;;5030736;28;20107;-49
2023/01/06 05:36:02;;;;;;;4.10;1.38;;;14.10;68.90;;;;;;5032740;28;20043;-48
2023/01/06 05:38:29;;;;;;;3.05;0.90;;;14.10;68.90;;;;;;5037149;28;20065;-52
2023/01/06 05:40:59;;;;;;;1.05;0.77;;;14.10;68.90;;;;;;5037986;28;20116;-50
2023/01/06 05:43:26;;;;;;;3.35;0.75;;;14.10;69.00;;;;;;5034348;28;20035;-49
2023/01/06 05:45:54;;;;;;;0.88;0.70;;;14.00;68.80;;;;;;5039755;28;20052;-50
2023/01/06 05:48:26;;;;;;;3.58;1.00;;;14.10;68.90;;;;;;5047789;28;20394;-49
2023/01/06 05:51:00;;;;;;;0.93;0.75;;;14.10;68.90;;;;;;5029405;28;20572;-49
2023/01/06 05:53:30;;;;;;;1.63;0.90;;;14.10;68.80;;;;;;5047007;28;20048;-48
2023/01/06 05:56:03;;;;;;;1.75;0.80;;;14.10;68.80;;;;;;5033273;28;20073;-49
2023/01/06 05:58:32;;;;;;;1.45;1.05;;;14.10;68.60;;;;;;5037310;28;20072;-50
2023/01/06 06:01:03;;;;;;;1.25;0.57;;;14.10;68.80;;;;;;5044454;28;20107;-51
2023/01/06 06:03:31;;;;;;;1.17;0.60;;;14.10;68.80;;;;;;5051905;28;20037;-48
2023/01/06 06:06:05;;;;;;;2.20;0.50;;;14.00;68.80;;;;;;5046874;28;20120;-49
2023/01/06 06:08:32;;;;;;;1.38;0.50;;;14.10;68.60;;;;;;5024893;28;20045;-49
2023/01/06 06:11:06;;;;;;;1.95;0.70;;;14.00;68.70;;;;;;5036302;28;20047;-49
2023/01/06 06:13:33;;;;;;;0.95;0.77;;;14.00;68.60;;;;;;5051396;28;20106;-48
2023/01/06 06:16:04;;;;;;;2.70;0.47;;;14.00;68.60;;;;;;5048107;28;20121;-48
2023/01/06 06:18:31;;;;;;;0.57;0.55;;;14.00;68.50;;;;;;5026692;28;20042;-52
2023/01/06 06:21:02;;;;;;;1.27;0.68;;;14.00;68.60;;;;;;5025235;28;20156;-49
2023/01/06 06:23:29;;;;;;;1.80;0.80;;;14.00;68.50;;;;;;5050276;28;20481;-52
2023/01/06 06:25:56;;;;;;;1.40;0.52;;;14.00;68.70;;;;;;5027387;28;20048;-51
2023/01/06 06:28:23;;;;;;;2.10;0.60;;;14.00;68.60;;;;;;5034913;28;20048;-52
2023/01/06 06:30:50;;;;;;;1.85;0.40;;;14.00;69.10;;;;;;5042620;28;20049;-49
2023/01/06 06:33:16;;;;;;;1.67;0.47;;;14.00;68.60;;;;;;5047815;28;20041;-51
2023/01/06 06:35:43;;;;;;;2.30;1.05;;;14.00;68.60;;;;;;5031561;28;20056;-51
2023/01/06 06:38:10;;;;;;;3.20;1.45;;;14.00;68.60;;;;;;5043402;28;20037;-49
2023/01/06 06:40:36;;;;;;;3.15;1.30;;;14.00;68.50;;;;;;5049529;28;20033;-53
2023/01/06 06:43:03;;;;;;;1.60;1.00;;;14.00;68.40;;;;;;5049307;28;20049;-49
2023/01/06 06:45:30;;;;;;;1.60;0.47;;;14.00;68.50;;;;;;5026175;28;20043;-52
2023/01/06 06:47:56;;;;;;;0.88;0.50;;;14.10;68.60;;;;;;5034671;28;20041;-53
2023/01/06 06:50:23;;;;;;;0.40;0.38;;;14.10;68.50;;;;;;5038022;28;20045;-50
2023/01/06 06:52:50;;;;;;;1.17;0.50;;;14.10;68.40;;;;;;5046666;28;20052;-51
2023/01/06 06:55:16;;;;;;;0.82;0.50;;;14.10;68.40;;;;;;5029593;28;20037;-49
2023/01/06 06:57:43;;;;;;;3.70;1.00;;;14.10;68.30;;;;;;5043640;28;20041;-49
2023/01/06 07:00:10;;;;;;;0.77;0.60;;;14.10;68.30;;;;;;5041532;28;20056;-51
2023/01/06 07:02:37;;;;;;;1.15;0.73;;;14.10;68.30;;;;;;5031253;28;20048;-52
2023/01/06 07:05:04;;;;;;;1.00;0.60;;;14.10;68.30;;;;;;5027674;28;20037;-49
2023/01/06 07:07:30;;;;;;;1.50;0.45;;;14.10;68.40;;;;;;5029872;28;20140;-50
2023/01/06 07:09:57;;;;;;;1.50;0.68;;;14.10;68.50;;;;;;5035315;28;20561;-49
2023/01/06 07:12:24;;;;;;;1.00;0.40;;;14.10;68.60;;;;;;5045238;28;20733;-49
2023/01/06 07:14:50;;;;;;;2.58;0.70;;;14.10;68.60;;;;;;5046316;28;20069;-52
2023/01/06 07:17:17;;;;;;;1.33;0.50;;;14.10;68.70;;;;;;5049830;28;20033;-50
2023/01/06 07:19:44;;;;;;;1.25;0.85;;;14.10;68.70;;;;;;5033084;28;20459;-48
2023/01/06 07:22:10;;;;;;;0.47;0.45;;;14.10;68.60;;;;;;5049301;28;20037;-52
2023/01/06 07:24:37;;;;;;;3.15;0.63;;;14.10;68.70;;;;;;5032314;28;20036;-50
2023/01/06 07:27:04;;;;;;;0.98;0.50;;;14.10;68.80;;;;;;5041765;28;20067;-53
2023/01/06 07:29:30;;;;;;;1.65;0.57;;;14.10;68.70;;;;;;5049322;28;20431;-51
2023/01/06 07:32:04;;;;;;;1.40;0.52;;;14.10;68.60;;;;;;5043324;28;20245;-49
2023/01/06 07:34:31;;;;;;;0.70;0.60;;;14.10;68.70;;;;;;5027804;28;20065;-52
2023/01/06 07:36:58;;;;;;;0.25;0.25;;;14.10;68.70;;;;;;5046591;28;20053;-50
2023/01/06 07:39:24;;;;;;;1.33;0.50;;;14.10;68.60;;;;;;5042696;28;20038;-50
2023/01/06 07:41:51;;;;;;;0.60;0.45;;;14.20;69.30;;;;;;5033315;28;20073;-51
2023/01/06 07:44:18;;;;;;;1.02;0.57;;;14.20;68.80;;;;;;5029690;28;20039;-48
2023/01/06 07:46:44;;;;;;;0.85;0.70;;;14.20;68.80;;;;;;5030348;28;20055;-53
2023/01/06 07:49:11;;;;;;;0.60;0.50;;;14.10;68.70;;;;;;5032346;28;20116;-51
2023/01/06 07:51:38;;;;;;;1.20;0.63;;;14.10;68.80;;;;;;5033562;28;20088;-51
2023/01/06 07:54:05;;;;;;;0.50;0.28;;;14.20;68.90;;;;;;5025989;28;20041;-49
2023/01/06 07:56:34;;;;;;;0.90;0.70;;;14.20;68.90;;;;;;5030878;28;20041;-51
2023/01/06 07:59:01;;;;;;;0.65;0.50;;;14.20;68.90;;;;;;5029970;28;20041;-51
2023/01/06 08:01:27;;;;;;;0.80;0.70;;;14.20;69.00;;;;;;5027665;28;20044;-53
2023/01/06 08:03:54;;;;;;;0.85;0.60;;;14.20;69.10;;;;;;5030942;28;20087;-48
2023/01/06 08:06:21;;;;;;;3.13;0.88;;;14.20;69.10;;;;;;5041135;28;20130;-46
2023/01/06 08:08:48;;;;;;;0.60;0.43;;;14.20;69.10;;;;;;5036970;28;20041;-53
2023/01/06 08:11:14;;;;;;;0.80;0.30;;;14.20;69.10;;;;;;5030455;28;20098;-52
2023/01/06 08:13:41;;;;;;;0.60;0.50;;;14.20;69.20;;;;;;5045810;28;20048;-53
2023/01/06 08:16:09;;;;;;;1.40;0.50;;;14.20;69.30;;;;;;5049271;28;20605;-50
2023/01/06 08:18:39;;;;;;;0.40;0.20;;;14.30;69.30;;;;;;5042884;28;20049;-49
2023/01/06 08:21:09;;;;;;;1.90;0.65;;;14.20;69.30;;;;;;5029516;28;20506;-49
2023/01/06 08:23:37;;;;;;;1.25;0.50;;;14.30;69.50;;;;;;5041256;28;20037;-49
2023/01/06 08:26:14;;;;;;;0.60;0.40;;;14.20;69.50;;;;;;5024742;28;20038;-51
2023/01/06 08:28:43;;;;;;;2.85;0.70;;;14.20;69.60;;;;;;5037443;28;20094;-49
2023/01/06 08:31:12;;;;;;;0.93;0.50;;;14.30;69.70;;;;;;5040084;28;20045;-53
2023/01/06 08:33:39;;;;;;;2.03;0.60;;;14.30;69.70;;;;;;5041430;28;20132;-48
2023/01/06 08:36:07;;;;;;;0.73;0.40;;;14.20;70.30;;;;;;5035882;28;20047;-51
2023/01/06 08:38:35;;;;;;;0.55;0.40;;;14.30;69.90;;;;;;5038234;28;20167;-49
2023/01/06 08:41:03;;;;;;;0.50;0.50;;;14.20;69.90;;;;;;5044977;28;20492;-50
2023/01/06 08:43:30;;;;;;;0.50;0.50;;;14.20;70.00;;;;;;5041454;28;20493;-51
2023/01/06 08:46:02;;;;;;;1.95;0.45;;;14.20;70.20;;;;;;5049250;28;20102;-51
2023/01/06 08:48:30;;;;;;;1.23;0.50;;;14.20;70.30;;;;;;5030013;28;20069;-49
2023/01/06 08:51:10;;;;;;;0.65;0.65;;;14.20;70.30;;;;;;5038789;28;20136;-53
2023/01/06 08:53:37;;;;;;;1.58;0.40;;;14.20;70.50;;;;;;5048192;28;20049;-50
2023/01/06 08:56:10;;;;;;;0.43;0.40;;;14.20;70.50;;;;;;5043091;28;20041;-53
2023/01/06 08:58:36;;;;;;;0.80;0.40;;;14.20;70.80;;;;;;5027603;28;20041;-49
2023/01/06 09:01:03;;;;;;;0.60;0.60;;;14.10;71.00;;;;;;5031723;28;20260;-50
2023/01/06 09:03:29;;;;;;;1.02;0.50;;;14.10;71.30;;;;;;5041784;28;20537;-49
2023/01/06 09:05:57;;;;;;;0.95;0.40;;;14.10;71.30;;;;;;5034928;28;20422;-49
2023/01/06 09:08:24;;;;;;;1.10;0.75;;;14.00;71.70;;;;;;5047776;28;20067;-53
2023/01/06 09:10:53;;;;;;;0.50;0.40;;;14.00;71.90;;;;;;5034769;28;20060;-50
2023/01/06 09:13:20;;;;;;;1.02;0.60;;;14.00;72.20;;;;;;5044104;28;20048;-53
2023/01/06 09:15:47;;;;;;;0.60;0.40;;;14.00;72.40;;;;;;5036087;28;20049;-48
2023/01/06 09:18:14;;;;;;;1.58;0.60;;;14.00;72.60;;;;;;5035603;28;20037;-51
2023/01/06 09:20:41;;;;;;;1.15;0.30;;;14.00;72.70;;;;;;5047050;28;20041;-50
2023/01/06 09:23:08;;;;;;;1.05;0.45;;;13.90;72.80;;;;;;5048737;28;20044;-50
2023/01/06 09:25:34;;;;;;;0.82;0.47;;;14.00;73.00;;;;;;5027256;28;20121;-51
2023/01/06 09:28:01;;;;;;;0.63;0.63;;;13.90;73.10;;;;;;5047023;28;20041;-51
2023/01/06 09:30:28;;;;;;;0.50;0.50;;;13.90;73.30;;;;;;5050155;28;20128;-52
2023/01/06 09:32:55;;;;;;;1.10;0.60;;;14.00;73.50;;;;;;5051576;28;20094;-49
2023/01/06 09:35:21;;;;;;;1.13;0.70;;;13.90;73.70;;;;;;5027420;28;20045;-52
2023/01/06 09:37:50;;;;;;;1.05;0.40;;;13.90;73.80;;;;;;5040638;28;20118;-49
2023/01/06 09:40:24;;;;;;;0.60;0.57;;;13.90;73.80;;;;;;5051703;28;20068;-49
2023/01/06 09:43:04;;;;;;;0.43;0.43;;;13.90;74.10;;;;;;5051598;28;20119;-52
2023/01/06 09:45:34;;;;;;;0.47;0.45;;;13.90;74.30;;;;;;5029108;28;20038;-49
2023/01/06 09:48:04;;;;;;;0.95;0.82;;;13.80;74.40;;;;;;5046797;28;20115;-50
2023/01/06 09:50:42;;;;;;;1.25;0.40;;;13.80;74.50;;;;;;5034559;28;20038;-48
2023/01/06 09:53:12;;;;;;;0.82;0.50;;;13.80;75.00;;;;;;5028766;28;20072;-49
2023/01/06 09:55:52;;;;;;;0.45;0.45;;;13.80;74.70;;;;;;5032839;28;20140;-49
2023/01/06 09:58:48;;;;;;;0.80;0.55;;;13.80;75.10;;;;;;5034992;28;20037;-49
2023/01/06 10:01:22;;;;;;;1.98;0.68;;;13.80;75.20;;;;;;5023087;28;20060;-50
2023/01/06 10:03:49;;;;;;;0.50;0.50;;;13.80;75.00;;;;;;5029702;28;20524;-51
2023/01/06 10:06:43;;;;;;;0.73;0.45;;;13.90;75.00;;;;;;5034832;28;20107;-48
2023/01/06 10:09:29;;;;;;;0.57;0.50;;;13.90;75.20;;;;;;5032654;28;20436;-52
2023/01/06 10:12:16;;;;;;;1.00;0.40;;;13.90;75.10;;;;;;5029827;28;20124;-52
2023/01/06 10:14:49;;;;;;;0.82;0.70;;;13.90;75.00;;;;;;5031794;28;20049;-50
2023/01/06 10:17:28;;;;;;;1.02;0.60;;;14.00;75.10;;;;;;5033877;28;20042;-53
2023/01/06 10:20:04;;;;;;;0.45;0.43;;;14.00;75.10;;;;;;5032384;28;20044;-53
2023/01/06 10:22:52;;;;;;;0.50;0.50;;;14.00;75.00;;;;;;5031754;28;20144;-49
2023/01/06 10:25:21;;;;;;;0.68;0.63;;;14.00;75.20;;;;;;5042478;28;20177;-52
2023/01/06 10:27:50;;;;;;;0.60;0.60;;;14.10;74.90;;;;;;5039000;28;20056;-53
2023/01/06 10:30:21;;;;;;;0.68;0.60;;;14.10;74.90;;;;;;5046892;28;20777;-50
2023/01/06 10:32:51;;;;;;;0.90;0.60;;;14.10;75.50;;;;;;5030822;28;20045;-51
2023/01/06 10:35:21;;;;;;;0.80;0.50;;;14.10;74.80;;;;;;5040908;28;20033;-53
2023/01/06 10:37:50;;;;;;;1.05;0.93;;;14.20;75.00;;;;;;5049612;28;20789;-50
2023/01/06 10:40:24;;;;;;;0.98;0.80;;;14.20;74.90;;;;;;5033677;28;20042;-53
2023/01/06 10:42:57;;;;;;;1.02;0.85;;;14.30;75.30;;;;;;5050314;28;20086;-49
2023/01/06 10:45:28;;;;;;;0.80;0.77;;;14.40;75.00;;;;;;5051047;28;20442;-50
2023/01/06 10:47:55;;;;;;;1.50;0.85;;;14.40;74.80;;;;;;5034238;28;20072;-50
2023/01/06 10:50:22;;;;;;;0.82;0.65;;;14.50;75.20;;;;;;5037077;28;20037;-52
2023/01/06 10:52:49;;;;;;;0.75;0.75;;;14.50;74.20;;;;;;5037327;28;20081;-51
2023/01/06 10:55:32;;;;;;;0.85;0.80;;;14.60;73.80;;;;;;5050527;28;20115;-49
2023/01/06 10:58:10;;;;;;;0.82;0.70;;;14.60;73.90;;;;;;4999058;28;20042;-51
2023/01/06 11:00:53;;;;;;;1.67;1.10;;;14.70;73.90;;;;;;5028862;28;20033;-48
2023/01/06 11:03:20;;;;;;;0.73;0.60;;;14.70;73.80;;;;;;5026863;28;20045;-50
2023/01/06 11:06:13;;;;;;;1.38;1.00;;;14.80;74.00;;;;;;5041540;28;20052;-50
2023/01/06 11:08:43;;;;;;;0.70;0.70;;;14.80;73.90;;;;;;5023134;28;20132;-49
2023/01/06 11:11:17;;;;;;;0.70;0.70;;;14.90;73.60;;;;;;5043135;28;20047;-51
2023/01/06 11:14:04;;;;;;;0.93;0.77;;;15.00;73.60;;;;;;5045281;28;20049;-53
2023/01/06 11:16:34;;;;;;;1.63;0.60;;;15.00;72.70;;;;;;5027491;28;20129;-50
2023/01/06 11:19:06;;;;;;;0.70;0.70;;;15.00;72.40;;;;;;5042266;28;20037;-51
2023/01/06 11:21:43;;;;;;;1.30;1.20;;;15.10;72.30;;;;;;5032577;28;20047;-47
2023/01/06 11:24:22;;;;;;;1.88;0.85;;;15.10;72.20;;;;;;5034129;28;20407;-50
2023/01/06 11:26:54;;;;;;;1.00;0.90;;;15.10;72.30;;;;;;5027467;28;20678;-51
2023/01/06 11:29:37;;;;;;;0.90;0.85;;;15.10;72.40;;;;;;5032296;28;20045;-53
2023/01/06 11:32:11;;;;;;;;;;;15.10;72.20;;;;;;5042931;28;20091;-50
2023/01/06 11:34:49;;;;;;;0.57;0.57;;;15.20;72.30;;;;;;5049649;28;20459;-52
2023/01/06 11:37:36;;;;;;;0.73;0.68;;;15.20;71.90;;;;;;5028656;28;20049;-53
2023/01/06 11:40:28;;;;;;;1.42;0.80;;;15.30;71.60;;;;;;5032388;28;20116;-53
2023/01/06 11:42:58;;;;;;;1.10;0.70;;;15.30;71.50;;;;;;5029969;28;20041;-53
2023/01/06 11:45:39;;;;;;;2.75;0.55;;;15.30;71.70;;;;;;5028851;28;20083;-53
2023/01/06 11:48:16;;;;;;;2.30;0.68;;;15.30;71.50;;;;;;5028387;28;20116;-53
2023/01/06 11:50:55;;;;;;;0.73;0.63;;;15.30;71.10;;;;;;5031997;28;20034;-52
2023/01/06 11:53:25;;;;;;;0.80;0.60;;;15.30;70.90;;;;;;5032713;28;20047;-53
2023/01/06 11:56:04;;;;;;;1.77;1.02;;;15.30;71.20;;;;;;5026575;28;20408;-53
2023/01/06 11:58:32;;;;;;;0.57;0.57;;;15.40;71.10;;;;;;5029248;28;20056;-53
2023/01/06 12:01:26;;;;;;;0.82;0.70;;;15.30;70.90;;;;;;5028433;28;20041;-53
2023/01/06 12:04:17;;;;;;;0.98;0.82;;;15.40;70.80;;;;;;5026982;28;20693;-52
2023/01/06 12:06:44;;;;;;;0.50;0.50;;;15.30;70.90;;;;;;5027415;28;20099;-51
2023/01/06 12:09:32;;;;;;;1.58;0.90;;;15.30;70.90;;;;;;5029180;28;20046;-52
2023/01/06 12:12:06;;;;;;;0.43;0.40;;;15.30;71.20;;;;;;5026538;28;20046;-50
2023/01/06 12:14:35;;;;;;;0.52;0.52;;;15.20;71.40;;;;;;5035613;28;20047;-53
2023/01/06 12:17:32;;;;;;;1.63;0.60;;;15.20;71.60;;;;;;5048572;28;20056;-52
2023/01/06 12:20:14;;;;;;;0.47;0.47;;;15.20;71.90;;;;;;5049358;28;20429;-50
2023/01/06 12:22:49;;;;;;;0.95;0.73;;;15.20;72.00;;;;;;5028158;28;20045;-53
2023/01/06 12:25:44;;;;;;;1.55;0.50;;;15.20;72.00;;;;;;5031597;28;20545;-50
2023/01/06 12:28:37;;;;;;;0.85;0.65;;;15.20;72.30;;;;;;5048915;28;20612;-53
2023/01/06 12:31:07;;;;;;;0.80;0.80;;;15.30;72.40;;;;;;5036600;28;20033;-51
2023/01/06 12:33:52;;;;;;;0.70;0.70;;;15.20;72.30;;;;;;5033195;28;20039;-50
2023/01/06 12:36:32;;;;;;;1.90;0.80;;;15.20;72.70;;;;;;5017785;28;20091;-50
2023/01/06 12:39:04;;;;;;;0.68;0.57;;;15.20;72.70;;;;;;5043127;28;20048;-52
2023/01/06 12:41:48;;;;;;;0.88;0.88;;;15.10;72.90;;;;;;5045261;28;20040;-53
2023/01/06 12:44:33;;;;;;;2.22;0.90;;;15.10;73.10;;;;;;5030573;28;20037;-51
2023/01/06 12:47:05;;;;;;;0.63;0.63;;;15.00;73.40;;;;;;5030829;28;20494;-52
2023/01/06 12:49:42;;;;;;;0.77;0.77;;;15.00;73.20;;;;;;5031259;28;20046;-52
2023/01/06 12:52:21;;;;;;;0.70;0.70;;;15.00;73.40;;;;;;5028688;28;20625;-50
2023/01/06 12:54:52;;;;;;;1.25;1.20;;;15.00;73.40;;;;;;5034328;28;20069;-52
2023/01/06 12:57:28;;;;;;;0.77;0.77;;;15.00;73.60;;;;;;5011315;28;20037;-48
2023/01/06 13:00:10;;;;;;;0.70;0.70;;;14.90;73.60;;;;;;5028309;28;20055;-53
2023/01/06 13:02:51;;;;;;;1.98;1.08;;;15.00;74.10;;;;;;5021380;28;20111;-53
2023/01/06 13:05:37;;;;;;;0.60;0.60;;;15.00;73.80;;;;;;5035103;28;20115;-53
2023/01/06 13:08:52;;;;;;;0.57;0.57;;;15.00;74.00;;;;;;5044994;28;20037;-53
2023/01/06 13:11:46;;;;;;;0.77;0.77;;;15.00;74.00;;;;;;4990558;28;20512;-49
2023/01/06 13:14:19;;;;;;;0.98;0.77;;;15.00;74.00;;;;;;5048059;28;20059;-49
2023/01/06 13:17:16;;;;;;;0.60;0.60;;;15.00;74.80;;;;;;5040682;28;20120;-53
2023/01/06 13:19:48;;;;;;;1.00;1.00;;;15.10;74.20;;;;;;4999592;28;20165;-51
2023/01/06 13:22:24;;;;;;;0.70;0.63;;;15.10;73.80;;;;;;5039290;28;20048;-49
2023/01/06 13:25:19;;;;;;;1.13;0.90;;;15.10;73.50;;;;;;5049008;28;20033;-52
2023/01/06 13:27:57;;;;;;;1.33;0.90;;;15.10;73.30;;;;;;5031607;28;20045;-52